sensor_id;sensor_type;location;lat;lon;timestamp;pressure;altitude;pressure_sealevel;temperature;humidity
51239;BME280;38154;47.548;18.828;2023-05-02T00:01:06;98793.44;;;15.35;43.08
51239;BME280;38154;47.548;18.828;2023-05-02T00:03:32;98798.63;;;15.40;43.19
51239;BME280;38154;47.548;18.828;2023-05-02T00:05:58;98794.16;;;15.45;43.57
51239;BME280;38154;47.548;18.828;2023-05-02T00:08:24;98801.34;;;15.34;43.52
51239;BME280;38154;47.548;18.828;2023-05-02T00:10:50;98796.16;;;15.29;43.85
51239;BME280;38154;47.548;18.828;2023-05-02T00:13:16;98791.81;;;15.28;43.78
51239;BME280;38154;47.548;18.828;2023-05-02T00:15:41;98798.00;;;15.24;43.58
51239;BME280;38154;47.548;18.828;2023-05-02T00:18:07;98797.22;;;15.19;43.77
51239;BME280;38154;47.548;18.828;2023-05-02T00:20:33;98796.25;;;15.25;43.99
51239;BME280;38154;47.548;18.828;2023-05-02T00:22:58;98783.91;;;15.28;44.02
51239;BME280;38154;47.548;18.828;2023-05-02T00:25:24;98786.53;;;15.28;43.99
51239;BME280;38154;47.548;18.828;2023-05-02T00:27:50;98784.72;;;15.33;43.91
51239;BME280;38154;47.548;18.828;2023-05-02T00:30:16;98797.91;;;15.30;43.84
51239;BME280;38154;47.548;18.828;2023-05-02T00:32:43;98788.28;;;15.29;43.77
51239;BME280;38154;47.548;18.828;2023-05-02T00:35:08;98781.41;;;15.24;43.92
51239;BME280;38154;47.548;18.828;2023-05-02T00:37:34;98788.38;;;15.23;44.58
51239;BME280;38154;47.548;18.828;2023-05-02T00:40:00;98788.25;;;15.32;44.38
51239;BME280;38154;47.548;18.828;2023-05-02T00:42:26;98790.94;;;15.28;44.75
51239;BME280;38154;47.548;18.828;2023-05-02T00:44:56;98784.06;;;15.20;45.05
51239;BME280;38154;47.548;18.828;2023-05-02T00:47:21;98785.75;;;15.25;45.04
51239;BME280;38154;47.548;18.828;2023-05-02T00:49:48;98792.69;;;15.29;45.46
51239;BME280;38154;47.548;18.828;2023-05-02T00:52:14;98787.38;;;15.33;45.66
51239;BME280;38154;47.548;18.828;2023-05-02T00:54:40;98782.91;;;15.37;45.74
51239;BME280;38154;47.548;18.828;2023-05-02T00:57:06;98787.41;;;15.30;46.48
51239;BME280;38154;47.548;18.828;2023-05-02T00:59:32;98797.13;;;15.25;46.28
51239;BME280;38154;47.548;18.828;2023-05-02T01:14:49;98804.13;;;14.72;48.39
51239;BME280;38154;47.548;18.828;2023-05-02T01:17:17;98801.56;;;14.67;48.93
51239;BME280;38154;47.548;18.828;2023-05-02T01:19:46;98800.81;;;14.54;49.35
51239;BME280;38154;47.548;18.828;2023-05-02T01:22:15;98794.75;;;14.52;49.71
51239;BME280;38154;47.548;18.828;2023-05-02T01:24:47;98794.72;;;14.54;50.32
51239;BME280;38154;47.548;18.828;2023-05-02T01:27:21;98791.34;;;14.44;51.06
51239;BME280;38154;47.548;18.828;2023-05-02T01:29:49;98793.22;;;14.36;51.35
51239;BME280;38154;47.548;18.828;2023-05-02T01:32:15;98798.47;;;14.34;52.05
51239;BME280;38154;47.548;18.828;2023-05-02T01:34:43;98795.00;;;14.32;52.69
51239;BME280;38154;47.548;18.828;2023-05-02T01:37:11;98777.47;;;14.36;53.45
51239;BME280;38154;47.548;18.828;2023-05-02T01:39:37;98791.44;;;14.38;53.90
51239;BME280;38154;47.548;18.828;2023-05-02T01:42:04;98792.34;;;14.35;54.20
51239;BME280;38154;47.548;18.828;2023-05-02T01:44:30;98787.09;;;14.37;54.15
51239;BME280;38154;47.548;18.828;2023-05-02T01:46:57;98787.16;;;14.32;54.81
51239;BME280;38154;47.548;18.828;2023-05-02T01:49:24;98779.25;;;14.34;54.89
51239;BME280;38154;47.548;18.828;2023-05-02T01:51:51;98782.75;;;14.33;54.81
51239;BME280;38154;47.548;18.828;2023-05-02T01:54:17;98782.84;;;14.28;55.11
51239;BME280;38154;47.548;18.828;2023-05-02T01:56:44;98777.72;;;14.19;55.68
51239;BME280;38154;47.548;18.828;2023-05-02T01:59:11;98783.91;;;14.13;55.71
51239;BME280;38154;47.548;18.828;2023-05-02T02:01:39;98770.88;;;14.07;56.03
51239;BME280;38154;47.548;18.828;2023-05-02T02:04:05;98767.53;;;13.94;56.82
51239;BME280;38154;47.548;18.828;2023-05-02T02:06:32;98775.44;;;13.91;57.29
51239;BME280;38154;47.548;18.828;2023-05-02T02:08:58;98770.12;;;13.96;57.65
51239;BME280;38154;47.548;18.828;2023-05-02T02:11:25;98760.56;;;13.95;58.32
51239;BME280;38154;47.548;18.828;2023-05-02T02:13:54;98759.59;;;13.99;58.23
51239;BME280;38154;47.548;18.828;2023-05-02T02:16:23;98765.78;;;13.95;59.09
51239;BME280;38154;47.548;18.828;2023-05-02T02:18:49;98758.75;;;13.98;59.34
51239;BME280;38154;47.548;18.828;2023-05-02T02:21:19;98760.59;;;13.90;60.06
51239;BME280;38154;47.548;18.828;2023-05-02T02:23:48;98753.63;;;13.87;60.60
51239;BME280;38154;47.548;18.828;2023-05-02T02:26:16;98750.16;;;13.87;61.33
51239;BME280;38154;47.548;18.828;2023-05-02T02:28:42;98759.59;;;13.99;61.11
51239;BME280;38154;47.548;18.828;2023-05-02T02:31:07;98757.94;;;13.95;61.70
51239;BME280;38154;47.548;18.828;2023-05-02T02:33:33;98763.16;;;13.96;62.34
51239;BME280;38154;47.548;18.828;2023-05-02T02:36:23;98757.06;;;13.92;62.74
51239;BME280;38154;47.548;18.828;2023-05-02T02:38:46;98752.69;;;13.95;63.21
51239;BME280;38154;47.548;18.828;2023-05-02T02:41:15;98751.87;;;13.89;64.38
51239;BME280;38154;47.548;18.828;2023-05-02T02:48:49;98746.47;;;14.00;64.60
51239;BME280;38154;47.548;18.828;2023-05-02T02:56:15;98759.59;;;13.99;65.81
51239;BME280;38154;47.548;18.828;2023-05-02T02:58:54;98766.56;;;14.03;65.49
51239;BME280;38154;47.548;18.828;2023-05-02T03:01:22;98761.34;;;14.00;65.98
51239;BME280;38154;47.548;18.828;2023-05-02T03:03:48;98759.59;;;14.00;66.07
51239;BME280;38154;47.548;18.828;2023-05-02T03:06:18;98757.84;;;13.99;66.28
51239;BME280;38154;47.548;18.828;2023-05-02T03:08:44;98764.03;;;13.95;66.79
51239;BME280;38154;47.548;18.828;2023-05-02T03:11:10;98756.16;;;13.97;67.17
51239;BME280;38154;47.548;18.828;2023-05-02T03:13:36;98764.00;;;13.97;67.14
51239;BME280;38154;47.548;18.828;2023-05-02T03:16:09;98770.16;;;13.94;67.42
51239;BME280;38154;47.548;18.828;2023-05-02T03:18:36;98763.97;;;14.01;66.97
51239;BME280;38154;47.548;18.828;2023-05-02T03:21:02;98771.88;;;13.97;67.50
51239;BME280;38154;47.548;18.828;2023-05-02T03:23:28;98769.25;;;13.97;67.40
51239;BME280;38154;47.548;18.828;2023-05-02T03:25:54;98769.28;;;13.94;67.61
51239;BME280;38154;47.548;18.828;2023-05-02T03:28:19;98778.88;;;13.96;67.40
51239;BME280;38154;47.548;18.828;2023-05-02T03:30:45;98774.56;;;13.89;67.78
51239;BME280;38154;47.548;18.828;2023-05-02T03:33:11;98783.28;;;13.92;67.59
51239;BME280;38154;47.548;18.828;2023-05-02T03:35:36;98772.03;;;13.86;68.04
51239;BME280;38154;47.548;18.828;2023-05-02T03:38:02;98774.72;;;13.80;68.25
51239;BME280;38154;47.548;18.828;2023-05-02T03:40:28;98777.28;;;13.83;68.43
51239;BME280;38154;47.548;18.828;2023-05-02T03:42:53;98772.03;;;13.84;68.46
51239;BME280;38154;47.548;18.828;2023-05-02T03:45:19;98780.75;;;13.86;68.50
51239;BME280;38154;47.548;18.828;2023-05-02T03:47:45;98779.72;;;13.98;67.64
51239;BME280;38154;47.548;18.828;2023-05-02T03:50:10;98782.37;;;13.97;68.10
51239;BME280;38154;47.548;18.828;2023-05-02T03:52:36;98788.47;;;13.97;67.85
51239;BME280;38154;47.548;18.828;2023-05-02T03:55:02;98780.63;;;13.94;68.42
51239;BME280;38154;47.548;18.828;2023-05-02T03:57:29;98785.00;;;13.95;68.10
51239;BME280;38154;47.548;18.828;2023-05-02T03:59:54;98785.84;;;13.97;68.82
51239;BME280;38154;47.548;18.828;2023-05-02T04:02:20;98789.25;;;14.04;67.91
51239;BME280;38154;47.548;18.828;2023-05-02T04:04:46;98781.37;;;14.04;69.38
51239;BME280;38154;47.548;18.828;2023-05-02T04:07:11;98793.56;;;14.09;68.05
51239;BME280;38154;47.548;18.828;2023-05-02T04:09:42;98781.28;;;14.15;67.70
51239;BME280;38154;47.548;18.828;2023-05-02T04:12:08;98791.69;;;14.19;68.30
51239;BME280;38154;47.548;18.828;2023-05-02T04:14:34;98793.38;;;14.23;67.10
51239;BME280;38154;47.548;18.828;2023-05-02T04:16:59;98789.00;;;14.22;67.13
51239;BME280;38154;47.548;18.828;2023-05-02T04:19:25;98789.84;;;14.26;66.71
51239;BME280;38154;47.548;18.828;2023-05-02T04:21:51;98788.97;;;14.27;66.81
51239;BME280;38154;47.548;18.828;2023-05-02T04:24:17;98791.38;;;14.41;66.91
51239;BME280;38154;47.548;18.828;2023-05-02T04:26:43;98789.44;;;14.57;65.52
51239;BME280;38154;47.548;18.828;2023-05-02T04:29:08;98801.56;;;14.67;65.04
51239;BME280;38154;47.548;18.828;2023-05-02T04:31:34;98799.69;;;14.75;64.95
51239;BME280;38154;47.548;18.828;2023-05-02T04:34:00;98805.69;;;14.83;64.29
51239;BME280;38154;47.548;18.828;2023-05-02T04:36:26;98800.28;;;14.93;65.39
51239;BME280;38154;47.548;18.828;2023-05-02T04:38:52;98801.94;;;14.98;62.98
51239;BME280;38154;47.548;18.828;2023-05-02T04:41:18;98801.75;;;15.09;62.70
51239;BME280;38154;47.548;18.828;2023-05-02T04:43:44;98806.88;;;15.18;62.54
51239;BME280;38154;47.548;18.828;2023-05-02T04:46:09;98809.41;;;15.23;61.43
51239;BME280;38154;47.548;18.828;2023-05-02T04:48:35;98799.59;;;15.34;61.57
51239;BME280;38154;47.548;18.828;2023-05-02T04:51:01;98807.28;;;15.45;60.47
51239;BME280;38154;47.548;18.828;2023-05-02T04:53:27;98814.13;;;15.54;60.19
51239;BME280;38154;47.548;18.828;2023-05-02T04:55:53;98815.66;;;15.67;60.05
51239;BME280;38154;47.548;18.828;2023-05-02T04:58:18;98820.97;;;15.63;59.44
51239;BME280;38154;47.548;18.828;2023-05-02T05:00:44;98814.72;;;15.70;59.35
51239;BME280;38154;47.548;18.828;2023-05-02T05:03:10;98821.31;;;15.94;58.82
51239;BME280;38154;47.548;18.828;2023-05-02T05:05:35;98823.72;;;16.03;57.93
51239;BME280;38154;47.548;18.828;2023-05-02T05:08:01;98829.69;;;16.13;57.70
51239;BME280;38154;47.548;18.828;2023-05-02T05:10:27;98823.91;;;15.95;56.95
51239;BME280;38154;47.548;18.828;2023-05-02T05:12:52;98824.72;;;15.99;57.69
51239;BME280;38154;47.548;18.828;2023-05-02T05:15:18;98819.50;;;15.96;57.95
51239;BME280;38154;47.548;18.828;2023-05-02T05:17:46;98827.09;;;16.10;56.06
51239;BME280;38154;47.548;18.828;2023-05-02T05:20:12;98829.19;;;16.38;55.47
51239;BME280;38154;47.548;18.828;2023-05-02T05:22:38;98832.25;;;16.57;54.79
51239;BME280;38154;47.548;18.828;2023-05-02T05:25:04;98833.06;;;16.60;54.04
51239;BME280;38154;47.548;18.828;2023-05-02T05:27:30;98834.09;;;16.53;54.47
51239;BME280;38154;47.548;18.828;2023-05-02T05:29:56;98840.03;;;16.63;54.55
51239;BME280;38154;47.548;18.828;2023-05-02T05:32:21;98852.78;;;16.81;53.95
51239;BME280;38154;47.548;18.828;2023-05-02T05:34:54;98853.00;;;16.70;53.39
51239;BME280;38154;47.548;18.828;2023-05-02T05:37:20;98855.50;;;16.77;53.15
51239;BME280;38154;47.548;18.828;2023-05-02T05:39:46;98856.31;;;16.80;52.20
51239;BME280;38154;47.548;18.828;2023-05-02T05:42:12;98863.09;;;16.92;52.17
51239;BME280;38154;47.548;18.828;2023-05-02T05:44:38;98870.59;;;17.09;52.06
51239;BME280;38154;47.548;18.828;2023-05-02T05:47:03;98862.31;;;17.60;51.43
51239;BME280;38154;47.548;18.828;2023-05-02T05:49:30;98872.16;;;17.90;49.75
51239;BME280;38154;47.548;18.828;2023-05-02T05:51:56;98868.84;;;18.13;50.03
51239;BME280;38154;47.548;18.828;2023-05-02T05:54:21;98867.44;;;18.32;48.91
51239;BME280;38154;47.548;18.828;2023-05-02T05:56:47;98873.63;;;18.61;48.12
51239;BME280;38154;47.548;18.828;2023-05-02T05:59:13;98881.41;;;18.66;47.07
51239;BME280;38154;47.548;18.828;2023-05-02T06:01:39;98881.16;;;18.45;48.34
51239;BME280;38154;47.548;18.828;2023-05-02T06:04:05;98875.84;;;18.15;48.63
51239;BME280;38154;47.548;18.828;2023-05-02T06:06:31;98873.75;;;18.27;48.14
51239;BME280;38154;47.548;18.828;2023-05-02T06:08:57;98888.69;;;19.17;45.86
51239;BME280;38154;47.548;18.828;2023-05-02T06:11:23;98891.50;;;19.66;44.29
51239;BME280;38154;47.548;18.828;2023-05-02T06:13:52;98896.09;;;20.13;43.34
51239;BME280;38154;47.548;18.828;2023-05-02T06:16:18;98884.88;;;20.30;43.57
51239;BME280;38154;47.548;18.828;2023-05-02T06:18:44;98888.78;;;20.68;43.21
51239;BME280;38154;47.548;18.828;2023-05-02T06:21:10;98890.53;;;21.36;40.55
51239;BME280;38154;47.548;18.828;2023-05-02T06:23:35;98886.38;;;21.93;40.69
51239;BME280;38154;47.548;18.828;2023-05-02T06:26:02;98897.09;;;22.33;38.61
51239;BME280;38154;47.548;18.828;2023-05-02T06:28:28;98896.37;;;24.13;34.98
51239;BME280;38154;47.548;18.828;2023-05-02T06:31:01;98903.00;;;25.68;32.01
51239;BME280;38154;47.548;18.828;2023-05-02T06:33:28;98917.06;;;27.32;30.61
51239;BME280;38154;47.548;18.828;2023-05-02T06:35:53;98910.19;;;28.98;27.28
51239;BME280;38154;47.548;18.828;2023-05-02T06:38:19;98905.72;;;28.47;27.80
51239;BME280;38154;47.548;18.828;2023-05-02T06:40:45;98913.78;;;29.22;26.54
51239;BME280;38154;47.548;18.828;2023-05-02T06:43:11;98916.97;;;29.28;26.35
51239;BME280;38154;47.548;18.828;2023-05-02T06:45:38;98919.41;;;28.94;26.79
51239;BME280;38154;47.548;18.828;2023-05-02T06:48:03;98913.41;;;29.03;26.42
51239;BME280;38154;47.548;18.828;2023-05-02T06:50:29;98921.22;;;29.06;26.44
51239;BME280;38154;47.548;18.828;2023-05-02T06:52:55;98912.69;;;26.16;30.10
51239;BME280;38154;47.548;18.828;2023-05-02T06:55:20;98908.88;;;24.79;32.11
51239;BME280;38154;47.548;18.828;2023-05-02T06:57:49;98910.06;;;24.40;32.90
51239;BME280;38154;47.548;18.828;2023-05-02T07:00:15;98904.91;;;22.94;35.44
51239;BME280;38154;47.548;18.828;2023-05-02T07:02:41;98907.06;;;22.07;37.22
51239;BME280;38154;47.548;18.828;2023-05-02T07:05:07;98897.06;;;21.92;37.88
51239;BME280;38154;47.548;18.828;2023-05-02T07:07:33;98905.06;;;22.12;38.89
51239;BME280;38154;47.548;18.828;2023-05-02T07:10:01;98912.38;;;22.86;36.99
51239;BME280;38154;47.548;18.828;2023-05-02T07:12:35;98904.59;;;22.02;38.55
51239;BME280;38154;47.548;18.828;2023-05-02T07:15:00;98918.50;;;20.77;40.75
51239;BME280;38154;47.548;18.828;2023-05-02T07:17:26;98910.84;;;20.44;41.97
51239;BME280;38154;47.548;18.828;2023-05-02T07:19:52;98910.22;;;19.87;43.24
51239;BME280;38154;47.548;18.828;2023-05-02T07:22:18;98905.59;;;20.67;42.05
51239;BME280;38154;47.548;18.828;2023-05-02T07:24:44;98903.81;;;22.00;38.65
51239;BME280;38154;47.548;18.828;2023-05-02T07:27:10;98906.91;;;22.89;36.97
51239;BME280;38154;47.548;18.828;2023-05-02T07:29:36;98908.56;;;22.73;37.48
51239;BME280;38154;47.548;18.828;2023-05-02T07:32:02;98907.34;;;22.20;38.40
51239;BME280;38154;47.548;18.828;2023-05-02T07:34:28;98904.78;;;22.39;37.77
51239;BME280;38154;47.548;18.828;2023-05-02T07:36:54;98907.38;;;21.79;39.31
51239;BME280;38154;47.548;18.828;2023-05-02T07:39:20;98911.03;;;21.32;40.76
51239;BME280;38154;47.548;18.828;2023-05-02T07:41:46;98908.69;;;21.24;41.08
51239;BME280;38154;47.548;18.828;2023-05-02T07:44:11;98901.72;;;20.76;42.55
51239;BME280;38154;47.548;18.828;2023-05-02T07:46:37;98911.94;;;20.63;42.22
51239;BME280;38154;47.548;18.828;2023-05-02T07:49:03;98906.41;;;20.44;43.00
51239;BME280;38154;47.548;18.828;2023-05-02T07:51:28;98915.19;;;20.46;43.79
51239;BME280;38154;47.548;18.828;2023-05-02T07:53:54;98908.16;;;20.45;43.71
51239;BME280;38154;47.548;18.828;2023-05-02T07:56:25;98915.50;;;20.86;42.61
51239;BME280;38154;47.548;18.828;2023-05-02T07:58:51;98920.66;;;23.18;38.56
51239;BME280;38154;47.548;18.828;2023-05-02T08:01:17;98926.06;;;25.39;33.67
51239;BME280;38154;47.548;18.828;2023-05-02T08:03:43;98923.72;;;25.01;34.23
51239;BME280;38154;47.548;18.828;2023-05-02T08:06:09;98924.03;;;24.79;35.42
51239;BME280;38154;47.548;18.828;2023-05-02T08:08:35;98925.38;;;23.84;36.76
51239;BME280;38154;47.548;18.828;2023-05-02T08:11:01;98922.44;;;23.18;38.19
51239;BME280;38154;47.548;18.828;2023-05-02T08:13:27;98914.53;;;24.73;36.68
51239;BME280;38154;47.548;18.828;2023-05-02T08:15:53;98920.56;;;26.76;31.84
51239;BME280;38154;47.548;18.828;2023-05-02T08:18:23;98926.34;;;27.53;30.66
51239;BME280;38154;47.548;18.828;2023-05-02T08:20:48;98925.13;;;27.72;30.15
51239;BME280;38154;47.548;18.828;2023-05-02T08:23:15;98929.66;;;27.84;30.55
51239;BME280;38154;47.548;18.828;2023-05-02T08:25:40;98921.50;;;28.52;28.86
51239;BME280;38154;47.548;18.828;2023-05-02T08:28:06;98918.50;;;28.69;28.50
51239;BME280;38154;47.548;18.828;2023-05-02T08:30:32;98928.47;;;28.16;28.77
51239;BME280;38154;47.548;18.828;2023-05-02T08:32:58;98930.59;;;27.01;30.66
51239;BME280;38154;47.548;18.828;2023-05-02T08:35:23;98935.63;;;27.75;29.83
51239;BME280;38154;47.548;18.828;2023-05-02T08:37:49;98933.72;;;27.50;29.58
51239;BME280;38154;47.548;18.828;2023-05-02T08:40:14;98928.56;;;27.05;31.04
51239;BME280;38154;47.548;18.828;2023-05-02T08:42:41;98918.75;;;25.73;31.75
51239;BME280;38154;47.548;18.828;2023-05-02T08:45:08;98927.94;;;26.14;31.68
51239;BME280;38154;47.548;18.828;2023-05-02T08:47:35;98928.94;;;27.13;30.96
51239;BME280;38154;47.548;18.828;2023-05-02T08:50:01;98922.66;;;27.69;30.44
51239;BME280;38154;47.548;18.828;2023-05-02T08:52:27;98923.94;;;28.03;29.03
51239;BME280;38154;47.548;18.828;2023-05-02T08:54:53;98926.13;;;28.75;29.86
51239;BME280;38154;47.548;18.828;2023-05-02T08:57:19;98914.06;;;28.94;27.87
51239;BME280;38154;47.548;18.828;2023-05-02T08:59:45;98909.28;;;28.73;27.43
51239;BME280;38154;47.548;18.828;2023-05-02T09:02:11;98902.50;;;28.55;28.21
51239;BME280;38154;47.548;18.828;2023-05-02T09:04:42;98922.47;;;28.38;28.49
51239;BME280;38154;47.548;18.828;2023-05-02T09:07:09;98910.78;;;28.26;28.56
51239;BME280;38154;47.548;18.828;2023-05-02T09:09:34;98911.37;;;28.94;27.62
51239;BME280;38154;47.548;18.828;2023-05-02T09:12:00;98906.72;;;29.70;27.54
51239;BME280;38154;47.548;18.828;2023-05-02T09:14:27;98915.09;;;29.17;26.75
51239;BME280;38154;47.548;18.828;2023-05-02T09:16:57;98920.31;;;27.37;28.96
51239;BME280;38154;47.548;18.828;2023-05-02T09:19:23;98901.72;;;26.20;30.32
51239;BME280;38154;47.548;18.828;2023-05-02T09:21:50;98904.91;;;24.37;35.25
51239;BME280;38154;47.548;18.828;2023-05-02T09:24:17;98903.19;;;24.70;34.74
51239;BME280;38154;47.548;18.828;2023-05-02T09:26:43;98899.56;;;25.97;31.81
51239;BME280;38154;47.548;18.828;2023-05-02T09:29:20;98906.84;;;27.79;30.03
51239;BME280;38154;47.548;18.828;2023-05-02T09:31:46;98907.53;;;28.72;28.43
51239;BME280;38154;47.548;18.828;2023-05-02T09:34:15;98905.72;;;29.71;28.13
51239;BME280;38154;47.548;18.828;2023-05-02T09:36:48;98908.03;;;30.00;26.38
51239;BME280;38154;47.548;18.828;2023-05-02T09:39:24;98902.00;;;30.20;26.37
51239;BME280;38154;47.548;18.828;2023-05-02T09:41:50;98916.28;;;29.13;27.68
51239;BME280;38154;47.548;18.828;2023-05-02T09:44:17;98914.31;;;27.86;28.53
51239;BME280;38154;47.548;18.828;2023-05-02T09:46:47;98909.28;;;26.71;30.31
51239;BME280;38154;47.548;18.828;2023-05-02T09:49:13;98900.59;;;26.24;31.11
51239;BME280;38154;47.548;18.828;2023-05-02T09:51:39;98908.66;;;25.78;32.14
51239;BME280;38154;47.548;18.828;2023-05-02T09:54:05;98902.16;;;25.52;32.23
51239;BME280;38154;47.548;18.828;2023-05-02T09:56:31;98902.41;;;24.84;33.50
51239;BME280;38154;47.548;18.828;2023-05-02T09:59:10;98899.00;;;23.97;35.21
51239;BME280;38154;47.548;18.828;2023-05-02T10:01:37;98897.19;;;24.15;34.40
51239;BME280;38154;47.548;18.828;2023-05-02T10:04:03;98884.25;;;24.25;35.52
51239;BME280;38154;47.548;18.828;2023-05-02T10:06:28;98885.59;;;26.51;32.60
51239;BME280;38154;47.548;18.828;2023-05-02T10:08:55;98897.66;;;26.72;30.38
51239;BME280;38154;47.548;18.828;2023-05-02T10:11:21;98900.91;;;27.33;30.60
51239;BME280;38154;47.548;18.828;2023-05-02T10:13:47;98894.47;;;28.29;28.26
51239;BME280;38154;47.548;18.828;2023-05-02T10:16:13;98889.09;;;28.42;29.32
51239;BME280;38154;47.548;18.828;2023-05-02T10:18:51;98885.12;;;28.22;28.48
51239;BME280;38154;47.548;18.828;2023-05-02T10:21:26;98889.38;;;27.86;28.74
51239;BME280;38154;47.548;18.828;2023-05-02T10:23:54;98876.75;;;28.01;29.40
51239;BME280;38154;47.548;18.828;2023-05-02T10:26:21;98881.72;;;27.80;28.38
51239;BME280;38154;47.548;18.828;2023-05-02T10:28:48;98877.00;;;27.83;28.51
51239;BME280;38154;47.548;18.828;2023-05-02T10:31:14;98880.09;;;28.04;28.16
51239;BME280;38154;47.548;18.828;2023-05-02T10:33:40;98879.63;;;28.75;27.66
51239;BME280;38154;47.548;18.828;2023-05-02T10:36:07;98876.81;;;27.46;29.52
51239;BME280;38154;47.548;18.828;2023-05-02T10:38:33;98881.78;;;26.83;30.16
51239;BME280;38154;47.548;18.828;2023-05-02T10:41:01;98882.34;;;27.30;30.26
51239;BME280;38154;47.548;18.828;2023-05-02T10:43:29;98890.19;;;27.73;29.26
51239;BME280;38154;47.548;18.828;2023-05-02T10:45:55;98867.63;;;28.55;28.22
51239;BME280;38154;47.548;18.828;2023-05-02T10:48:21;98879.66;;;28.23;27.94
51239;BME280;38154;47.548;18.828;2023-05-02T10:50:53;98881.72;;;27.39;28.38
51239;BME280;38154;47.548;18.828;2023-05-02T10:56:20;98876.28;;;25.38;32.10
51239;BME280;38154;47.548;18.828;2023-05-02T10:58:50;98882.72;;;25.50;32.23
51239;BME280;38154;47.548;18.828;2023-05-02T11:03:54;98883.72;;;25.63;31.57
51239;BME280;38154;47.548;18.828;2023-05-02T11:06:21;98885.31;;;24.88;33.50
51239;BME280;38154;47.548;18.828;2023-05-02T11:08:47;98891.06;;;24.64;34.54
51239;BME280;38154;47.548;18.828;2023-05-02T11:13:58;98871.63;;;24.62;34.95
51239;BME280;38154;47.548;18.828;2023-05-02T11:16:23;98877.22;;;25.37;33.86
51239;BME280;38154;47.548;18.828;2023-05-02T11:18:58;98878.97;;;25.99;32.35
51239;BME280;38154;47.548;18.828;2023-05-02T11:21:28;98884.78;;;26.05;31.66
51239;BME280;38154;47.548;18.828;2023-05-02T11:24:41;98878.13;;;25.82;32.62
51239;BME280;38154;47.548;18.828;2023-05-02T11:26:41;98881.88;;;25.33;33.30
51239;BME280;38154;47.548;18.828;2023-05-02T11:29:06;98877.66;;;24.97;34.01
51239;BME280;38154;47.548;18.828;2023-05-02T11:33:59;98889.06;;;25.63;32.03
51239;BME280;38154;47.548;18.828;2023-05-02T11:36:28;98880.59;;;24.93;33.54
51239;BME280;38154;47.548;18.828;2023-05-02T11:38:54;98873.19;;;24.82;34.52
51239;BME280;38154;47.548;18.828;2023-05-02T11:41:20;98870.84;;;25.70;33.85
51239;BME280;38154;47.548;18.828;2023-05-02T11:43:46;98861.72;;;26.62;33.08
51239;BME280;38154;47.548;18.828;2023-05-02T11:46:12;98866.94;;;26.78;31.37
51239;BME280;38154;47.548;18.828;2023-05-02T11:48:37;98867.31;;;26.86;32.54
51239;BME280;38154;47.548;18.828;2023-05-02T11:51:03;98860.75;;;27.19;30.83
51239;BME280;38154;47.548;18.828;2023-05-02T11:53:31;98866.19;;;26.76;32.20
51239;BME280;38154;47.548;18.828;2023-05-02T11:55:58;98850.41;;;25.99;32.73
51239;BME280;38154;47.548;18.828;2023-05-02T11:58:25;98865.78;;;25.35;34.05
51239;BME280;38154;47.548;18.828;2023-05-02T12:00:54;98858.81;;;25.00;34.17
51239;BME280;38154;47.548;18.828;2023-05-02T12:05:49;98846.41;;;24.99;34.55
51239;BME280;38154;47.548;18.828;2023-05-02T12:08:21;98850.16;;;25.59;33.22
51239;BME280;38154;47.548;18.828;2023-05-02T12:10:48;98840.03;;;25.64;32.31
51239;BME280;38154;47.548;18.828;2023-05-02T12:13:16;98840.78;;;25.20;33.25
51239;BME280;38154;47.548;18.828;2023-05-02T12:15:41;98832.22;;;25.31;33.57
51239;BME280;38154;47.548;18.828;2023-05-02T12:18:07;98830.66;;;25.57;32.47
51239;BME280;38154;47.548;18.828;2023-05-02T12:20:34;98836.97;;;25.70;32.90
51239;BME280;38154;47.548;18.828;2023-05-02T12:23:00;98828.97;;;25.70;32.69
51239;BME280;38154;47.548;18.828;2023-05-02T12:25:25;98825.63;;;25.52;32.03
51239;BME280;38154;47.548;18.828;2023-05-02T12:27:57;98836.91;;;25.42;32.91
51239;BME280;38154;47.548;18.828;2023-05-02T12:30:26;98833.31;;;25.43;33.16
51239;BME280;38154;47.548;18.828;2023-05-02T12:32:58;98823.53;;;25.58;33.39
51239;BME280;38154;47.548;18.828;2023-05-02T12:35:29;98823.81;;;26.41;32.57
51239;BME280;38154;47.548;18.828;2023-05-02T12:40:47;98828.72;;;25.45;32.74
51239;BME280;38154;47.548;18.828;2023-05-02T12:43:13;98828.34;;;24.73;32.94
51239;BME280;38154;47.548;18.828;2023-05-02T12:45:42;98825.56;;;24.42;33.85
51239;BME280;38154;47.548;18.828;2023-05-02T12:50:43;98822.34;;;23.86;33.80
51239;BME280;38154;47.548;18.828;2023-05-02T12:53:09;98828.06;;;24.12;34.20
51239;BME280;38154;47.548;18.828;2023-05-02T12:55:35;98828.72;;;24.33;33.39
51239;BME280;38154;47.548;18.828;2023-05-02T12:58:01;98824.78;;;24.40;33.87
51239;BME280;38154;47.548;18.828;2023-05-02T13:00:27;98816.88;;;24.39;33.95
51239;BME280;38154;47.548;18.828;2023-05-02T13:02:53;98820.28;;;24.25;33.20
51239;BME280;38154;47.548;18.828;2023-05-02T13:05:19;98823.44;;;23.82;33.79
51239;BME280;38154;47.548;18.828;2023-05-02T13:07:45;98822.72;;;23.61;33.71
51239;BME280;38154;47.548;18.828;2023-05-02T13:10:11;98821.84;;;23.96;33.94
51239;BME280;38154;47.548;18.828;2023-05-02T13:12:37;98814.16;;;23.89;34.00
51239;BME280;38154;47.548;18.828;2023-05-02T13:15:04;98821.16;;;23.92;34.03
51239;BME280;38154;47.548;18.828;2023-05-02T13:17:30;98810.19;;;23.63;34.19
51239;BME280;38154;47.548;18.828;2023-05-02T13:19:55;98809.41;;;23.44;33.42
51239;BME280;38154;47.548;18.828;2023-05-02T13:22:22;98814.31;;;23.34;34.97
51239;BME280;38154;47.548;18.828;2023-05-02T13:24:47;98811.53;;;23.55;35.38
51239;BME280;38154;47.548;18.828;2023-05-02T13:27:13;98810.66;;;23.71;35.79
51239;BME280;38154;47.548;18.828;2023-05-02T13:29:39;98805.88;;;23.61;36.04